Bordeaux, Wyoming
Current Conditions -  °F | °C
As of 2:15 PM on Monday 22 Dec 2014 (Local Time) from KGUR Reporting Station
Broken Clouds Broken Clouds  
Wind Chill: 38°   Ceiling: 5000
Heat Index: 46°   Visibility: 10mi
Dew Point: 26°   Wind: 25mph
Humidity: 46%   Direction: 310°NW
Pressure: 29.69"   Gusts: 36mph
Location:  42.0178°N, 105.098°W
Report Text: KGUR 222115Z AUTO 31022G31KT 10SM SCT042 BKN050 08/M03 A2969 RMK AO2 T00801031
Loading
Personal Weather Stations






























Interactive Weather Map New forecast layout! Learn more

10-Day Weather Forecast

Advertisements
Track Severe Weather on mobile